Pagrindinis puslapis
METAR-TAF:

METAR-TAF

Oro uostai :

Lakselv, Norvegija

platuma: 70-04N, ilguma: 024-59E, Aukštis: 0 m

Dabartinis oras

Ataskaita buvo paskelbta 37 minutes, ne 19:50 UTC
Vėjas 3 kt iš Šiaurės
Temperatūra 10°C
Drėgmė 66%
Slėgis 1010 hPa
Matomumas 10 km arba daugiau
nėra debesų žemiau 1500 m ir nėra kamuolinių lietaus debesų

METAR: ENNA 171950Z 01003KT CAVOK 10/04 Q1010 RMK WIND 1800FT 25005KT

Laikas: 22:27 (20:27 UTC)

Prognozė

Prognozė galioja nuo 17 metu 18 UTC su 18 metu 18 UTC
Vėjas 8 kt iš Šiaurės
Matomumas 10 km arba daugiau
Mažai debesys ne aukštis 3500 ft
Su prošvaistėmis ne aukštis 4500 ft
Tikimybė 30% :
Laikinai
nuo 17 metu 23 UTC su 18 metu 05 UTC
Su prošvaistėmis ne aukštis 1400 ft
Laikinai
nuo 18 metu 13 UTC su 18 metu 18 UTC
Su prošvaistėmis ne aukštis 1400 ft
lietus

TAF: ENNA 1718/1818 01008KT 9999 FEW035 BKN045 PROB30 TEMPO 1723/1805 BKN014 TEMPO 1813/1818 RA BKN014

Orai ataskaitas ir orų prognozės (METAR, TAF).

turimą stotys yra geltonos ir raudonos taškus žemėlapyje.

Perkelti pele per norėdami pamatyti stoties vardą.

Tada spustelėkite, norėdami matyti oro stebėjimo ir prognozės.

Norėdami pakeisti žemėlapį: spustelėkite ant žalios mygtukų su juodo kryžiaus žemyn,; žalią mygtuką su brūkšneliu, jei norite nutolinti; arba žalių rodyklių gretimoms žemėlapius.


METAR-TAF: